sensor_id;sensor_type;location;lat;lon;timestamp;pressure;altitude;pressure_sealevel;temperature;humidity
32330;BME280;18807;52.434;13.238;2023-08-31T00:05:19;74998.31;;;-142.05;100.00
32330;BME280;18807;52.434;13.238;2023-08-31T00:12:53;75006.47;;;-142.05;100.00
32330;BME280;18807;52.434;13.238;2023-08-31T00:20:29;75000.34;;;-142.05;100.00
32330;BME280;18807;52.434;13.238;2023-08-31T00:28:04;75008.50;;;-142.05;100.00
32330;BME280;18807;52.434;13.238;2023-08-31T00:35:43;75012.59;;;-142.05;100.00
32330;BME280;18807;52.434;13.238;2023-08-31T00:43:18;75000.34;;;-142.05;100.00
32330;BME280;18807;52.434;13.238;2023-08-31T00:50:55;75008.50;;;-142.05;100.00
32330;BME280;18807;52.434;13.238;2023-08-31T00:58:29;75008.50;;;-142.05;100.00
32330;BME280;18807;52.434;13.238;2023-08-31T01:06:08;75018.72;;;-142.05;100.00
32330;BME280;18807;52.434;13.238;2023-08-31T01:13:47;75020.75;;;-142.05;100.00
32330;BME280;18807;52.434;13.238;2023-08-31T01:21:30;75024.81;;;-142.05;100.00
32330;BME280;18807;52.434;13.238;2023-08-31T01:29:10;75035.03;;;-142.05;100.00
32330;BME280;18807;52.434;13.238;2023-08-31T01:36:48;75053.41;;;-142.05;100.00
32330;BME280;18807;52.434;13.238;2023-08-31T01:44:29;75059.50;;;-142.05;100.00
32330;BME280;18807;52.434;13.238;2023-08-31T01:52:05;75081.97;;;-142.05;100.00
32330;BME280;18807;52.434;13.238;2023-08-31T01:59:42;75114.59;;;-142.05;100.00
32330;BME280;18807;52.434;13.238;2023-08-31T02:07:16;75135.00;;;-142.05;100.00
32330;BME280;18807;52.434;13.238;2023-08-31T02:14:52;75143.16;;;-142.05;100.00
32330;BME280;18807;52.434;13.238;2023-08-31T02:22:26;75143.16;;;-142.05;100.00
32330;BME280;18807;52.434;13.238;2023-08-31T02:30:03;75143.16;;;-142.05;100.00
32330;BME280;18807;52.434;13.238;2023-08-31T02:37:38;75147.25;;;-142.05;100.00
32330;BME280;18807;52.434;13.238;2023-08-31T02:45:14;75153.38;;;-142.05;100.00
32330;BME280;18807;52.434;13.238;2023-08-31T02:52:49;75153.38;;;-142.05;100.00
32330;BME280;18807;52.434;13.238;2023-08-31T03:00:24;75155.41;;;-142.05;100.00
32330;BME280;18807;52.434;13.238;2023-08-31T03:07:59;75179.91;;;-142.05;100.00
32330;BME280;18807;52.434;13.238;2023-08-31T03:15:35;75169.69;;;-142.05;100.00
32330;BME280;18807;52.434;13.238;2023-08-31T03:23:10;75173.78;;;-142.05;100.00
32330;BME280;18807;52.434;13.238;2023-08-31T03:30:54;75181.94;;;-142.05;100.00
32330;BME280;18807;52.434;13.238;2023-08-31T03:38:28;75181.94;;;-142.05;100.00
32330;BME280;18807;52.434;13.238;2023-08-31T03:46:04;75196.22;;;-142.05;100.00
32330;BME280;18807;52.434;13.238;2023-08-31T03:53:38;75204.38;;;-142.05;100.00
32330;BME280;18807;52.434;13.238;2023-08-31T04:01:16;75210.50;;;-142.05;100.00
32330;BME280;18807;52.434;13.238;2023-08-31T04:08:50;75216.63;;;-142.05;100.00
32330;BME280;18807;52.434;13.238;2023-08-31T04:16:28;75222.75;;;-142.05;100.00
32330;BME280;18807;52.434;13.238;2023-08-31T04:24:03;75228.88;;;-142.05;100.00
32330;BME280;18807;52.434;13.238;2023-08-31T04:31:40;75239.06;;;-142.05;100.00
32330;BME280;18807;52.434;13.238;2023-08-31T04:39:16;75247.22;;;-142.05;100.00
32330;BME280;18807;52.434;13.238;2023-08-31T04:46:51;75255.38;;;-142.05;100.00
32330;BME280;18807;52.434;13.238;2023-08-31T04:54:25;75255.38;;;-142.05;100.00
32330;BME280;18807;52.434;13.238;2023-08-31T05:02:03;75257.44;;;-142.05;100.00
32330;BME280;18807;52.434;13.238;2023-08-31T05:09:38;75263.56;;;-142.05;100.00
32330;BME280;18807;52.434;13.238;2023-08-31T05:17:13;75265.59;;;-142.05;100.00
32330;BME280;18807;52.434;13.238;2023-08-31T05:24:48;75265.59;;;-142.05;100.00
32330;BME280;18807;52.434;13.238;2023-08-31T05:32:23;75273.75;;;-142.05;100.00
32330;BME280;18807;52.434;13.238;2023-08-31T05:39:58;75275.78;;;-142.05;100.00
32330;BME280;18807;52.434;13.238;2023-08-31T05:47:34;75279.88;;;-142.05;100.00
32330;BME280;18807;52.434;13.238;2023-08-31T05:55:09;75277.84;;;-142.05;100.00
32330;BME280;18807;52.434;13.238;2023-08-31T06:02:45;75269.69;;;-142.05;100.00
32330;BME280;18807;52.434;13.238;2023-08-31T06:10:19;75286.00;;;-142.05;100.00
32330;BME280;18807;52.434;13.238;2023-08-31T06:17:57;75296.19;;;-142.05;100.00
32330;BME280;18807;52.434;13.238;2023-08-31T06:25:34;75286.00;;;-142.05;100.00
32330;BME280;18807;52.434;13.238;2023-08-31T06:33:11;75288.03;;;-142.05;100.00
32330;BME280;18807;52.434;13.238;2023-08-31T06:40:46;75302.31;;;-142.05;100.00
32330;BME280;18807;52.434;13.238;2023-08-31T06:48:23;75316.59;;;-142.05;100.00
32330;BME280;18807;52.434;13.238;2023-08-31T06:55:58;75334.97;;;-142.05;100.00
32330;BME280;18807;52.434;13.238;2023-08-31T07:03:34;75332.94;;;-142.05;100.00
32330;BME280;18807;52.434;13.238;2023-08-31T07:11:09;75322.72;;;-142.05;100.00
32330;BME280;18807;52.434;13.238;2023-08-31T07:18:45;75320.69;;;-142.05;100.00
32330;BME280;18807;52.434;13.238;2023-08-31T07:26:21;75312.53;;;-142.05;100.00
32330;BME280;18807;52.434;13.238;2023-08-31T07:33:57;75320.69;;;-142.05;100.00
32330;BME280;18807;52.434;13.238;2023-08-31T07:41:31;75334.97;;;-142.05;100.00
32330;BME280;18807;52.434;13.238;2023-08-31T07:49:07;75332.94;;;-142.05;100.00
32330;BME280;18807;52.434;13.238;2023-08-31T07:56:42;75312.53;;;-142.05;100.00
32330;BME280;18807;52.434;13.238;2023-08-31T08:04:22;75290.06;;;-142.05;100.00
32330;BME280;18807;52.434;13.238;2023-08-31T08:11:59;75281.91;;;-142.05;94.62
32330;BME280;18807;52.434;13.238;2023-08-31T08:19:37;75261.50;;;-142.05;88.75
32330;BME280;18807;52.434;13.238;2023-08-31T08:27:11;75208.47;;;-142.05;84.38
32330;BME280;18807;52.434;13.238;2023-08-31T08:34:49;75147.25;;;-142.05;76.96
32330;BME280;18807;52.434;13.238;2023-08-31T08:42:24;75073.78;;;-142.05;78.80
32330;BME280;18807;52.434;13.238;2023-08-31T08:50:00;75063.59;;;-142.05;75.68
32330;BME280;18807;52.434;13.238;2023-08-31T08:57:36;75024.81;;;-142.05;71.05
32330;BME280;18807;52.434;13.238;2023-08-31T09:05:14;75006.47;;;-142.05;69.74
32330;BME280;18807;52.434;13.238;2023-08-31T09:12:52;75006.47;;;-142.05;67.34
32330;BME280;18807;52.434;13.238;2023-08-31T09:20:29;75069.72;;;-142.05;65.75
32330;BME280;18807;52.434;13.238;2023-08-31T09:28:04;75012.59;;;-142.05;65.27
32330;BME280;18807;52.434;13.238;2023-08-31T09:35:40;74957.50;;;-142.05;60.99
32330;BME280;18807;52.434;13.238;2023-08-31T09:43:23;74828.97;;;-142.05;58.90
32330;BME280;18807;52.434;13.238;2023-08-31T09:51:00;74835.09;;;-142.05;58.26
32330;BME280;18807;52.434;13.238;2023-08-31T09:58:39;74857.53;;;-142.05;54.01
32330;BME280;18807;52.434;13.238;2023-08-31T10:06:16;74912.63;;;-142.05;55.87
32330;BME280;18807;52.434;13.238;2023-08-31T10:13:50;74894.25;;;-142.05;55.25
32330;BME280;18807;52.434;13.238;2023-08-31T10:21:28;75016.66;;;-142.05;66.56
32330;BME280;18807;52.434;13.238;2023-08-31T10:29:03;75077.88;;;-142.05;75.37
32330;BME280;18807;52.434;13.238;2023-08-31T10:36:41;75124.81;;;-142.05;83.75
32330;BME280;18807;52.434;13.238;2023-08-31T10:44:18;75106.44;;;-142.05;88.14
32330;BME280;18807;52.434;13.238;2023-08-31T10:52:15;75110.53;;;-142.05;93.16
32330;BME280;18807;52.434;13.238;2023-08-31T11:00:08;75100.31;;;-142.05;97.75
32330;BME280;18807;52.434;13.238;2023-08-31T11:07:46;75092.16;;;-142.05;93.45
32330;BME280;18807;52.434;13.238;2023-08-31T11:15:26;75069.72;;;-142.05;90.94
32330;BME280;18807;52.434;13.238;2023-08-31T11:23:04;75045.22;;;-142.05;79.24
32330;BME280;18807;52.434;13.238;2023-08-31T11:30:41;75020.75;;;-142.05;76.87
32330;BME280;18807;52.434;13.238;2023-08-31T11:38:25;74986.06;;;-142.05;76.13
32330;BME280;18807;52.434;13.238;2023-08-31T11:46:02;74996.25;;;-142.05;68.19
32330;BME280;18807;52.434;13.238;2023-08-31T11:53:42;75057.47;;;-142.05;74.56
32330;BME280;18807;52.434;13.238;2023-08-31T12:01:18;75059.50;;;-142.05;75.86
32330;BME280;18807;52.434;13.238;2023-08-31T12:08:55;75028.91;;;-142.05;80.94
32330;BME280;18807;52.434;13.238;2023-08-31T12:16:33;75020.75;;;-142.05;73.16
32330;BME280;18807;52.434;13.238;2023-08-31T12:24:10;75024.81;;;-142.05;73.95
32330;BME280;18807;52.434;13.238;2023-08-31T12:31:45;75055.44;;;-142.05;73.82
32330;BME280;18807;52.434;13.238;2023-08-31T12:39:21;75063.59;;;-142.05;70.49
32330;BME280;18807;52.434;13.238;2023-08-31T12:46:55;75012.59;;;-142.05;70.31
32330;BME280;18807;52.434;13.238;2023-08-31T12:54:31;74986.06;;;-142.05;66.32
32330;BME280;18807;52.434;13.238;2023-08-31T13:02:05;74984.03;;;-142.05;61.74
32330;BME280;18807;52.434;13.238;2023-08-31T13:09:45;74939.13;;;-142.05;59.23
32330;BME280;18807;52.434;13.238;2023-08-31T13:17:20;74963.63;;;-142.05;60.65
32330;BME280;18807;52.434;13.238;2023-08-31T13:24:57;75006.47;;;-142.05;58.89
32330;BME280;18807;52.434;13.238;2023-08-31T13:32:33;75037.06;;;-142.05;58.39
32330;BME280;18807;52.434;13.238;2023-08-31T13:40:10;75073.78;;;-142.05;66.77
32330;BME280;18807;52.434;13.238;2023-08-31T13:47:44;75153.38;;;-142.05;77.79
32330;BME280;18807;52.434;13.238;2023-08-31T13:55:23;75235.00;;;-142.05;93.20
32330;BME280;18807;52.434;13.238;2023-08-31T14:02:59;75214.59;;;-142.05;97.29
32330;BME280;18807;52.434;13.238;2023-08-31T14:10:40;75245.19;;;-142.05;94.10
32330;BME280;18807;52.434;13.238;2023-08-31T14:18:14;75228.88;;;-142.05;84.75
32330;BME280;18807;52.434;13.238;2023-08-31T14:25:51;75210.50;;;-142.05;81.49
32330;BME280;18807;52.434;13.238;2023-08-31T14:33:25;75167.66;;;-142.05;82.05
32330;BME280;18807;52.434;13.238;2023-08-31T14:41:02;75092.16;;;-142.05;72.25
32330;BME280;18807;52.434;13.238;2023-08-31T14:48:40;75030.94;;;-142.05;68.18
32330;BME280;18807;52.434;13.238;2023-08-31T14:56:16;75067.69;;;-142.05;63.42
32330;BME280;18807;52.434;13.238;2023-08-31T15:03:51;75114.59;;;-142.05;67.13
32330;BME280;18807;52.434;13.238;2023-08-31T15:11:28;75120.72;;;-142.05;71.18
32330;BME280;18807;52.434;13.238;2023-08-31T15:19:02;75120.72;;;-142.05;69.00
32330;BME280;18807;52.434;13.238;2023-08-31T15:26:38;75145.22;;;-142.05;68.23
32330;BME280;18807;52.434;13.238;2023-08-31T15:34:12;75098.28;;;-142.05;65.07
32330;BME280;18807;52.434;13.238;2023-08-31T15:41:49;75110.53;;;-142.05;61.00
32330;BME280;18807;52.434;13.238;2023-08-31T15:49:31;75145.22;;;-142.05;60.95
32330;BME280;18807;52.434;13.238;2023-08-31T15:57:07;75181.94;;;-142.05;61.84
32330;BME280;18807;52.434;13.238;2023-08-31T16:04:44;75210.50;;;-142.05;63.08
32330;BME280;18807;52.434;13.238;2023-08-31T16:12:22;75243.16;;;-142.05;64.22
32330;BME280;18807;52.434;13.238;2023-08-31T16:19:57;75249.28;;;-142.05;66.48
32330;BME280;18807;52.434;13.238;2023-08-31T16:27:34;75257.44;;;-142.05;67.44
32330;BME280;18807;52.434;13.238;2023-08-31T16:35:12;75279.88;;;-142.05;69.88
32330;BME280;18807;52.434;13.238;2023-08-31T16:42:52;75316.59;;;-142.05;71.65
32330;BME280;18807;52.434;13.238;2023-08-31T16:50:30;75398.22;;;-142.05;85.26
32330;BME280;18807;52.434;13.238;2023-08-31T16:58:06;75463.53;;;-142.05;96.91
32330;BME280;18807;52.434;13.238;2023-08-31T17:05:40;75483.94;;;-142.05;96.45
32330;BME280;18807;52.434;13.238;2023-08-31T17:13:17;75490.06;;;-142.05;97.52
32330;BME280;18807;52.434;13.238;2023-08-31T17:20:57;75504.34;;;-142.05;95.42
32330;BME280;18807;52.434;13.238;2023-08-31T17:28:33;75498.22;;;-142.05;94.23
32330;BME280;18807;52.434;13.238;2023-08-31T17:36:09;75506.38;;;-142.05;91.04
32330;BME280;18807;52.434;13.238;2023-08-31T17:43:45;75532.91;;;-142.05;91.07
32330;BME280;18807;52.434;13.238;2023-08-31T17:51:20;75549.22;;;-142.05;99.21
32330;BME280;18807;52.434;13.238;2023-08-31T17:58:57;75539.03;;;-142.05;100.00
32330;BME280;18807;52.434;13.238;2023-08-31T18:06:32;75559.44;;;-142.05;100.00
32330;BME280;18807;52.434;13.238;2023-08-31T18:14:09;75571.69;;;-142.05;100.00
32330;BME280;18807;52.434;13.238;2023-08-31T18:21:44;75575.75;;;-142.05;100.00
32330;BME280;18807;52.434;13.238;2023-08-31T18:29:20;75600.25;;;-142.05;100.00
32330;BME280;18807;52.434;13.238;2023-08-31T18:36:54;75614.53;;;-142.05;100.00
32330;BME280;18807;52.434;13.238;2023-08-31T18:44:32;75622.69;;;-142.05;100.00
32330;BME280;18807;52.434;13.238;2023-08-31T18:52:06;75630.84;;;-142.05;100.00
32330;BME280;18807;52.434;13.238;2023-08-31T18:59:47;75643.09;;;-142.05;100.00
32330;BME280;18807;52.434;13.238;2023-08-31T19:07:31;75653.31;;;-142.05;100.00
32330;BME280;18807;52.434;13.238;2023-08-31T19:15:10;75657.38;;;-142.05;100.00
32330;BME280;18807;52.434;13.238;2023-08-31T19:22:45;75657.38;;;-142.05;100.00
32330;BME280;18807;52.434;13.238;2023-08-31T19:30:21;75669.63;;;-142.05;100.00
32330;BME280;18807;52.434;13.238;2023-08-31T19:37:55;75696.16;;;-142.05;100.00
32330;BME280;18807;52.434;13.238;2023-08-31T19:45:31;75704.31;;;-142.05;100.00
32330;BME280;18807;52.434;13.238;2023-08-31T19:53:07;75704.31;;;-142.05;100.00
32330;BME280;18807;52.434;13.238;2023-08-31T20:00:43;75724.72;;;-142.05;100.00
32330;BME280;18807;52.434;13.238;2023-08-31T20:08:18;75720.66;;;-142.05;100.00
32330;BME280;18807;52.434;13.238;2023-08-31T20:16:01;75724.72;;;-142.05;100.00
32330;BME280;18807;52.434;13.238;2023-08-31T20:23:36;75730.84;;;-142.05;100.00
32330;BME280;18807;52.434;13.238;2023-08-31T20:31:13;75741.06;;;-142.05;100.00
32330;BME280;18807;52.434;13.238;2023-08-31T20:38:50;75745.13;;;-142.05;100.00
32330;BME280;18807;52.434;13.238;2023-08-31T20:46:27;75751.25;;;-142.05;100.00
32330;BME280;18807;52.434;13.238;2023-08-31T20:54:02;75767.59;;;-142.05;100.00
32330;BME280;18807;52.434;13.238;2023-08-31T21:01:40;75775.75;;;-142.05;100.00
32330;BME280;18807;52.434;13.238;2023-08-31T21:09:14;75792.06;;;-142.05;100.00
32330;BME280;18807;52.434;13.238;2023-08-31T21:16:50;75804.31;;;-142.05;100.00
32330;BME280;18807;52.434;13.238;2023-08-31T21:24:25;75812.47;;;-142.05;100.00
32330;BME280;18807;52.434;13.238;2023-08-31T21:32:01;75812.47;;;-142.05;100.00
32330;BME280;18807;52.434;13.238;2023-08-31T21:39:37;75824.72;;;-142.05;100.00
32330;BME280;18807;52.434;13.238;2023-08-31T21:47:13;75820.63;;;-142.05;100.00
32330;BME280;18807;52.434;13.238;2023-08-31T21:54:47;75826.75;;;-142.05;100.00
32330;BME280;18807;52.434;13.238;2023-08-31T22:02:23;75832.88;;;-142.05;100.00
32330;BME280;18807;52.434;13.238;2023-08-31T22:09:59;75849.22;;;-142.05;100.00
32330;BME280;18807;52.434;13.238;2023-08-31T22:17:38;75847.16;;;-142.05;100.00
32330;BME280;18807;52.434;13.238;2023-08-31T22:25:13;75857.38;;;-142.05;100.00
32330;BME280;18807;52.434;13.238;2023-08-31T22:32:50;75857.38;;;-142.05;100.00
32330;BME280;18807;52.434;13.238;2023-08-31T22:40:24;75865.53;;;-142.05;100.00
32330;BME280;18807;52.434;13.238;2023-08-31T22:48:01;75867.56;;;-142.05;100.00
32330;BME280;18807;52.434;13.238;2023-08-31T22:55:35;75875.75;;;-142.05;100.00
32330;BME280;18807;52.434;13.238;2023-08-31T23:03:12;75881.88;;;-142.05;100.00
32330;BME280;18807;52.434;13.238;2023-08-31T23:10:56;75883.91;;;-142.05;100.00
32330;BME280;18807;52.434;13.238;2023-08-31T23:18:32;75898.19;;;-142.05;100.00
32330;BME280;18807;52.434;13.238;2023-08-31T23:26:07;75916.56;;;-142.05;100.00
32330;BME280;18807;52.434;13.238;2023-08-31T23:33:43;75924.72;;;-142.05;100.00
32330;BME280;18807;52.434;13.238;2023-08-31T23:41:18;75930.84;;;-142.05;100.00
32330;BME280;18807;52.434;13.238;2023-08-31T23:48:53;75949.22;;;-142.05;100.00
32330;BME280;18807;52.434;13.238;2023-08-31T23:56:27;75961.47;;;-142.05;100.00
